Time;durP1;ratioP1;P1;durP2;ratioP2;P2;SDS_P1;SDS_P2;PMS_P1;PMS_P2;Temp;Humidity;BMP_temperature;BMP_pressure;BME280_temperature;BME280_humidity;BME280_pressure;Samples;Min_cycle;Max_cycle;Signal;HPM_P1;HPM_P2
2021/03/30 00:02:15;;;;;;;0.52;0.52;;;12.30;99.90;;;;;;4416178;32;20500;-74
2021/03/30 00:04:40;;;;;;;0.43;0.43;;;12.40;99.90;;;;;;4416019;32;20134;-74
2021/03/30 00:07:06;;;;;;;0.50;0.50;;;12.40;99.90;;;;;;4415306;32;20073;-74
2021/03/30 00:09:31;;;;;;;4.22;1.42;;;12.40;99.90;;;;;;4414892;32;20124;-74
2021/03/30 00:11:57;;;;;;;0.55;0.55;;;12.30;99.90;;;;;;4415528;32;20136;-74
2021/03/30 00:14:22;;;;;;;0.43;0.43;;;12.30;99.90;;;;;;4415339;32;20533;-74
2021/03/30 00:16:48;;;;;;;0.40;0.40;;;12.30;99.90;;;;;;4415662;32;20073;-74
2021/03/30 00:19:13;;;;;;;0.40;0.40;;;12.30;99.90;;;;;;4415086;32;20069;-74
2021/03/30 00:21:39;;;;;;;0.40;0.40;;;12.30;99.90;;;;;;4415965;32;20133;-74
2021/03/30 00:24:05;;;;;;;0.40;0.40;;;12.30;99.90;;;;;;4409201;32;20070;-74
2021/03/30 00:26:34;;;;;;;0.37;0.37;;;12.30;99.90;;;;;;4400094;32;20070;-74
2021/03/30 00:29:01;;;;;;;0.65;0.47;;;12.10;99.90;;;;;;4399218;32;20074;-74
2021/03/30 00:31:26;;;;;;;0.95;0.88;;;12.00;99.90;;;;;;4400158;32;20066;-74
2021/03/30 00:33:52;;;;;;;1.70;0.95;;;11.90;99.90;;;;;;4400790;32;20519;-74
2021/03/30 00:36:17;;;;;;;0.30;0.30;;;11.90;99.90;;;;;;4399099;32;20078;-73
2021/03/30 00:38:43;;;;;;;0.40;0.40;;;11.90;99.90;;;;;;4398747;32;20062;-74
2021/03/30 00:41:08;;;;;;;1.02;0.93;;;11.80;99.90;;;;;;4400185;32;20083;-73
2021/03/30 00:43:34;;;;;;;1.45;0.68;;;11.80;99.90;;;;;;4399922;32;20062;-73
2021/03/30 00:45:59;;;;;;;0.55;0.55;;;11.80;99.90;;;;;;4400833;32;20077;-73
2021/03/30 00:48:27;;;;;;;0.95;0.50;;;11.80;99.90;;;;;;4400510;32;20073;-73
2021/03/30 00:50:54;;;;;;;0.50;0.50;;;11.90;99.90;;;;;;4399770;32;20114;-74
2021/03/30 00:53:20;;;;;;;0.40;0.40;;;11.80;99.90;;;;;;4400432;32;20131;-74
2021/03/30 00:55:46;;;;;;;0.40;0.40;;;11.80;99.90;;;;;;4400143;32;20546;-73
2021/03/30 00:58:12;;;;;;;0.30;0.30;;;11.90;99.90;;;;;;4399732;32;20129;-74
2021/03/30 01:00:37;;;;;;;0.30;0.30;;;11.90;99.90;;;;;;4399954;32;20113;-74
2021/03/30 01:03:03;;;;;;;0.47;0.43;;;11.90;99.90;;;;;;4401585;32;20449;-73
2021/03/30 01:05:29;;;;;;;12.07;3.12;;;11.80;99.90;;;;;;4399741;32;20065;-74
2021/03/30 01:08:18;;;;;;;0.62;0.62;;;11.70;99.90;;;;;;4399406;32;20117;-74
2021/03/30 01:11:24;;;;;;;1.02;0.85;;;11.60;99.90;;;;;;4388213;32;20105;-74
2021/03/30 01:14:06;;;;;;;0.37;0.37;;;11.60;99.90;;;;;;4380285;32;20467;-75
2021/03/30 01:16:40;;;;;;;0.30;0.30;;;11.70;99.90;;;;;;4399798;32;20069;-75
2021/03/30 01:19:28;;;;;;;0.50;0.50;;;11.50;99.90;;;;;;4399197;32;20099;-73
2021/03/30 01:22:24;;;;;;;0.30;0.30;;;11.40;99.90;;;;;;4399775;32;20082;-75
2021/03/30 01:24:54;;;;;;;0.57;0.57;;;11.40;99.90;;;;;;4387019;32;20126;-74
2021/03/30 01:27:44;;;;;;;0.30;0.30;;;11.30;99.90;;;;;;4399743;32;20125;-74
2021/03/30 01:30:11;;;;;;;0.40;0.40;;;11.30;99.90;;;;;;4387132;32;20082;-74
2021/03/30 01:32:40;;;;;;;0.35;0.35;;;11.30;99.90;;;;;;4399676;32;20524;-74
2021/03/30 01:35:10;;;;;;;1.85;1.40;;;11.30;99.90;;;;;;4399864;32;20161;-74
2021/03/30 01:37:47;;;;;;;0.43;0.43;;;11.30;99.90;;;;;;4398766;32;20388;-74
2021/03/30 01:40:20;;;;;;;1.12;0.80;;;11.20;99.90;;;;;;4400871;32;20078;-74
2021/03/30 01:42:48;;;;;;;0.68;0.68;;;11.10;99.90;;;;;;4399707;32;20514;-74
2021/03/30 01:45:16;;;;;;;0.60;0.60;;;11.10;99.90;;;;;;4399554;32;20534;-74
2021/03/30 01:47:42;;;;;;;2.33;1.27;;;11.20;99.90;;;;;;4399314;32;20555;-74
2021/03/30 01:50:10;;;;;;;0.65;0.57;;;11.20;99.90;;;;;;4399232;32;20082;-74
2021/03/30 01:52:36;;;;;;;0.50;0.50;;;11.30;99.90;;;;;;4399598;32;20531;-74
2021/03/30 01:55:03;;;;;;;1.10;0.52;;;11.30;99.90;;;;;;4398369;32;20129;-73
2021/03/30 01:57:30;;;;;;;4.12;2.30;;;11.30;99.90;;;;;;4398806;32;20074;-73
2021/03/30 01:59:58;;;;;;;0.50;0.50;;;11.00;99.90;;;;;;4398692;32;20067;-73
2021/03/30 02:02:24;;;;;;;7.12;1.12;;;10.90;99.90;;;;;;4399200;32;20066;-75
2021/03/30 02:04:51;;;;;;;0.62;0.62;;;10.90;99.90;;;;;;4399422;32;20557;-74
2021/03/30 02:07:17;;;;;;;0.70;0.70;;;10.90;99.90;;;;;;4399453;32;20078;-74
2021/03/30 02:09:49;;;;;;;0.37;0.37;;;10.80;99.90;;;;;;4398790;32;20078;-74
2021/03/30 02:12:16;;;;;;;0.90;0.70;;;10.90;99.90;;;;;;4398951;32;20109;-74
2021/03/30 02:14:43;;;;;;;1.05;0.77;;;10.90;99.90;;;;;;4399380;32;20073;-74
2021/03/30 02:17:13;;;;;;;0.47;0.47;;;10.90;99.90;;;;;;4399136;32;20515;-74
2021/03/30 02:19:47;;;;;;;0.37;0.37;;;10.90;99.90;;;;;;4399073;32;20082;-74
2021/03/30 02:22:29;;;;;;;0.62;0.60;;;10.80;99.90;;;;;;4399987;32;20219;-74
2021/03/30 02:24:58;;;;;;;0.40;0.40;;;10.80;99.90;;;;;;4399505;32;20137;-74
2021/03/30 02:27:25;;;;;;;2.15;0.90;;;10.70;99.90;;;;;;4399344;32;20090;-75
2021/03/30 02:29:54;;;;;;;4.97;0.50;;;10.80;99.90;;;;;;4399178;32;20066;-74
2021/03/30 02:32:23;;;;;;;0.30;0.30;;;10.80;99.90;;;;;;4399884;32;20495;-74
2021/03/30 02:34:51;;;;;;;0.47;0.47;;;10.80;99.90;;;;;;4400165;32;20424;-74
2021/03/30 02:37:19;;;;;;;0.37;0.37;;;10.70;99.90;;;;;;4398962;32;20054;-74
2021/03/30 02:39:47;;;;;;;0.50;0.50;;;10.60;99.90;;;;;;4398762;32;20674;-74
2021/03/30 02:42:15;;;;;;;0.40;0.40;;;10.60;99.90;;;;;;4399879;32;20086;-74
2021/03/30 02:44:41;;;;;;;5.25;1.10;;;10.70;99.90;;;;;;4399870;32;20046;-73
2021/03/30 02:47:09;;;;;;;0.40;0.40;;;10.70;99.90;;;;;;4399601;32;20476;-74
2021/03/30 02:49:35;;;;;;;0.60;0.60;;;10.80;99.90;;;;;;4398234;32;20057;-75
2021/03/30 02:52:02;;;;;;;0.30;0.30;;;10.60;99.90;;;;;;4398498;32;20721;-73
2021/03/30 02:54:29;;;;;;;0.60;0.60;;;10.50;99.90;;;;;;4398012;32;20062;-73
2021/03/30 02:56:58;;;;;;;0.40;0.40;;;10.40;99.90;;;;;;4399326;32;20108;-74
2021/03/30 02:59:25;;;;;;;0.40;0.40;;;10.40;99.90;;;;;;4398619;32;20066;-73
2021/03/30 03:01:51;;;;;;;0.40;0.40;;;10.40;99.90;;;;;;4398764;32;20091;-74
2021/03/30 03:04:17;;;;;;;0.40;0.40;;;10.40;99.90;;;;;;4399175;32;20066;-74
2021/03/30 03:06:44;;;;;;;0.57;0.57;;;10.40;99.90;;;;;;4398468;32;20058;-74
2021/03/30 03:09:11;;;;;;;3.97;1.70;;;10.30;99.90;;;;;;4398750;32;20105;-74
2021/03/30 03:11:40;;;;;;;0.40;0.40;;;10.20;99.90;;;;;;4398011;32;20074;-74
2021/03/30 03:14:08;;;;;;;0.88;0.62;;;10.00;99.90;;;;;;4398735;32;20066;-75
2021/03/30 03:16:34;;;;;;;1.75;1.10;;;9.90;99.90;;;;;;4398540;32;20070;-75
2021/03/30 03:19:00;;;;;;;1.95;1.25;;;9.90;99.90;;;;;;4398568;32;20078;-74
2021/03/30 03:21:27;;;;;;;0.80;0.80;;;9.80;99.90;;;;;;4398487;32;20554;-75
2021/03/30 03:23:52;;;;;;;0.50;0.50;;;9.80;99.90;;;;;;4398031;32;20074;-74
2021/03/30 03:26:18;;;;;;;0.47;0.47;;;9.80;99.90;;;;;;4397650;32;20226;-74
2021/03/30 03:28:45;;;;;;;5.35;1.52;;;9.80;99.90;;;;;;4398435;32;20070;-74
2021/03/30 03:31:11;;;;;;;0.40;0.40;;;9.80;99.90;;;;;;4398284;32;20070;-74
2021/03/30 03:33:37;;;;;;;0.35;0.35;;;9.80;99.90;;;;;;4398140;32;20073;-74
2021/03/30 03:36:08;;;;;;;0.62;0.45;;;9.80;99.90;;;;;;4398180;32;20082;-75
2021/03/30 03:38:35;;;;;;;2.00;1.20;;;9.70;99.90;;;;;;4398432;32;20069;-75
2021/03/30 03:41:01;;;;;;;0.60;0.60;;;9.70;99.90;;;;;;4398353;32;20070;-75
2021/03/30 03:43:26;;;;;;;0.40;0.40;;;9.70;99.90;;;;;;4398968;32;20083;-75
2021/03/30 03:45:52;;;;;;;0.50;0.50;;;9.70;99.90;;;;;;4400096;32;20381;-74
2021/03/30 03:48:17;;;;;;;1.05;0.82;;;9.70;99.90;;;;;;4398772;32;20530;-74
2021/03/30 03:50:43;;;;;;;0.43;0.43;;;9.60;99.90;;;;;;4398020;32;20083;-74
2021/03/30 03:53:12;;;;;;;0.40;0.40;;;9.60;99.90;;;;;;4399317;32;20137;-74
2021/03/30 03:55:46;;;;;;;6.62;0.82;;;9.60;99.90;;;;;;4400082;32;20405;-74
2021/03/30 03:58:15;;;;;;;0.70;0.70;;;9.60;99.90;;;;;;4400746;32;20116;-74
2021/03/30 04:00:41;;;;;;;0.50;0.50;;;9.50;99.90;;;;;;4400774;32;20128;-74
2021/03/30 04:03:28;;;;;;;0.30;0.30;;;9.30;99.90;;;;;;4400526;32;20076;-74
2021/03/30 04:06:14;;;;;;;1.85;0.82;;;9.20;99.90;;;;;;4389082;32;20074;-75
2021/03/30 04:08:54;;;;;;;1.52;1.15;;;9.10;99.90;;;;;;4400139;32;20077;-75
2021/03/30 04:11:21;;;;;;;0.50;0.40;;;9.20;99.90;;;;;;4400137;32;20417;-74
2021/03/30 04:13:48;;;;;;;1.30;0.88;;;9.30;99.90;;;;;;4400836;32;20496;-75
2021/03/30 04:16:14;;;;;;;0.32;0.32;;;9.40;99.90;;;;;;4400235;32;20609;-74
2021/03/30 04:18:41;;;;;;;15.43;1.45;;;9.30;99.90;;;;;;4400233;32;20074;-75
2021/03/30 04:21:21;;;;;;;11.65;0.85;;;9.20;99.90;;;;;;4400142;32;20113;-74
2021/03/30 04:23:47;;;;;;;0.52;0.40;;;9.10;99.90;;;;;;4400169;32;20091;-74
2021/03/30 04:26:13;;;;;;;0.60;0.60;;;9.00;99.90;;;;;;4400995;32;20074;-75
2021/03/30 04:28:39;;;;;;;0.20;0.20;;;9.00;99.90;;;;;;4401126;32;20145;-74
2021/03/30 04:31:06;;;;;;;0.80;0.57;;;9.10;99.90;;;;;;4401407;32;20074;-74
2021/03/30 04:33:31;;;;;;;1.73;0.88;;;9.10;99.90;;;;;;4399480;32;20075;-75
2021/03/30 04:35:58;;;;;;;1.35;0.70;;;9.00;99.90;;;;;;4400310;32;20062;-74
2021/03/30 04:38:24;;;;;;;1.98;1.33;;;9.10;99.90;;;;;;4399817;32;20061;-74
2021/03/30 04:40:53;;;;;;;1.65;0.57;;;9.10;99.90;;;;;;4400429;32;20122;-75
2021/03/30 04:43:21;;;;;;;28.15;0.77;;;9.10;99.90;;;;;;4400318;32;20069;-74
2021/03/30 04:45:46;;;;;;;2.00;1.35;;;9.10;99.90;;;;;;4400342;32;20059;-74
2021/03/30 04:48:12;;;;;;;0.40;0.40;;;9.20;99.90;;;;;;4400350;32;20081;-73
2021/03/30 04:50:37;;;;;;;0.77;0.77;;;9.20;99.90;;;;;;4399910;32;20401;-74
2021/03/30 04:53:03;;;;;;;0.88;0.88;;;9.30;99.90;;;;;;4400335;32;20078;-74
2021/03/30 04:55:29;;;;;;;0.40;0.40;;;9.20;99.90;;;;;;4399469;32;20452;-74
2021/03/30 04:57:55;;;;;;;2.47;1.20;;;9.20;99.90;;;;;;4399906;32;20129;-74
2021/03/30 05:00:21;;;;;;;0.50;0.50;;;9.20;99.90;;;;;;4399930;32;20067;-74
2021/03/30 05:02:46;;;;;;;0.40;0.40;;;9.30;99.90;;;;;;4395476;32;20221;-74
2021/03/30 05:05:12;;;;;;;0.35;0.35;;;9.30;99.90;;;;;;4399672;32;20193;-74
2021/03/30 05:07:38;;;;;;;0.50;0.50;;;9.30;99.90;;;;;;4399220;32;20149;-74
2021/03/30 05:10:05;;;;;;;0.47;0.47;;;9.50;99.90;;;;;;4399068;32;20137;-73
2021/03/30 05:12:31;;;;;;;0.55;0.55;;;9.70;99.90;;;;;;4394265;32;20090;-75
2021/03/30 05:14:56;;;;;;;0.50;0.50;;;9.80;99.90;;;;;;4401554;32;20069;-75
2021/03/30 05:17:22;;;;;;;0.85;0.85;;;9.90;99.90;;;;;;4415280;32;20089;-75
2021/03/30 05:19:47;;;;;;;0.60;0.60;;;10.10;99.90;;;;;;4405077;32;20542;-74
2021/03/30 05:22:13;;;;;;;4.22;1.17;;;10.10;99.90;;;;;;4399320;32;20069;-75
2021/03/30 05:24:38;;;;;;;1.25;0.88;;;10.00;99.90;;;;;;4398555;32;20065;-74
2021/03/30 05:27:05;;;;;;;0.60;0.60;;;9.90;99.90;;;;;;4399521;32;20074;-74
2021/03/30 05:29:30;;;;;;;0.70;0.70;;;9.80;99.90;;;;;;4399682;32;20089;-74
2021/03/30 05:31:56;;;;;;;0.98;0.82;;;9.90;99.90;;;;;;4399611;32;20125;-73
2021/03/30 05:34:22;;;;;;;0.40;0.40;;;10.00;99.90;;;;;;4399636;32;20129;-74
2021/03/30 05:36:47;;;;;;;0.50;0.50;;;10.20;99.90;;;;;;4399010;32;20069;-73
2021/03/30 05:39:13;;;;;;;0.73;0.70;;;10.20;99.90;;;;;;4400459;32;20075;-74
2021/03/30 05:41:39;;;;;;;1.55;0.95;;;10.20;99.90;;;;;;4400737;32;20086;-73
2021/03/30 05:44:07;;;;;;;0.95;0.68;;;10.20;99.90;;;;;;4400617;32;20058;-74
2021/03/30 05:46:32;;;;;;;1.17;1.08;;;10.10;99.90;;;;;;4399480;32;20451;-74
2021/03/30 05:48:58;;;;;;;0.55;0.55;;;10.20;99.90;;;;;;4398581;32;20066;-74
2021/03/30 05:51:25;;;;;;;1.75;1.52;;;10.20;99.90;;;;;;4400826;32;20137;-74
2021/03/30 05:53:56;;;;;;;0.85;0.82;;;10.30;99.90;;;;;;4399562;32;20078;-74
2021/03/30 05:56:22;;;;;;;;;;;10.30;99.90;;;;;;4398556;32;20140;-74
2021/03/30 05:58:49;;;;;;;10.98;2.05;;;10.30;99.90;;;;;;4398303;32;20009;-74
2021/03/30 06:01:16;;;;;;;1.55;0.70;;;10.40;99.90;;;;;;4399335;32;20102;-74
2021/03/30 06:03:44;;;;;;;1.65;1.20;;;10.40;99.90;;;;;;4398851;32;20133;-74
2021/03/30 06:06:10;;;;;;;0.90;0.70;;;10.50;99.90;;;;;;4398553;32;20055;-74
2021/03/30 06:08:36;;;;;;;0.77;0.77;;;10.50;99.90;;;;;;4399092;32;20531;-75
2021/03/30 06:11:05;;;;;;;0.68;0.68;;;10.60;99.90;;;;;;4399786;32;20067;-75
2021/03/30 06:13:49;;;;;;;0.47;0.47;;;10.70;99.90;;;;;;4399542;32;20067;-75
2021/03/30 06:16:37;;;;;;;0.57;0.57;;;10.70;99.90;;;;;;4399181;32;20091;-74
2021/03/30 06:19:08;;;;;;;1.15;1.05;;;10.90;99.90;;;;;;4398629;32;20074;-74
2021/03/30 06:21:37;;;;;;;1.12;0.85;;;11.00;99.90;;;;;;4399427;32;20074;-74
2021/03/30 06:24:25;;;;;;;2.33;1.50;;;11.20;99.90;;;;;;4399122;32;20069;-74
2021/03/30 06:26:53;;;;;;;2.70;1.23;;;11.30;99.90;;;;;;4387076;32;20070;-74
2021/03/30 06:29:27;;;;;;;1.27;0.80;;;11.30;99.90;;;;;;4398784;32;20073;-75
2021/03/30 06:31:55;;;;;;;1.83;0.75;;;11.40;99.90;;;;;;4400108;32;20082;-75
2021/03/30 06:34:29;;;;;;;0.62;0.60;;;11.50;99.90;;;;;;4399149;32;20061;-74
2021/03/30 06:36:55;;;;;;;0.57;0.57;;;11.60;99.90;;;;;;4398699;32;20070;-74
2021/03/30 06:39:37;;;;;;;1.58;0.70;;;11.60;99.90;;;;;;4397905;32;20112;-75
2021/03/30 06:42:11;;;;;;;0.60;0.60;;;11.70;99.90;;;;;;4400268;32;20074;-75
2021/03/30 06:44:39;;;;;;;1.45;1.27;;;11.80;99.90;;;;;;4399720;32;20062;-74
2021/03/30 06:47:22;;;;;;;12.07;0.77;;;11.90;99.90;;;;;;4398890;32;20122;-75
2021/03/30 06:49:58;;;;;;;1.65;1.20;;;12.00;99.90;;;;;;4398367;32;20074;-74
2021/03/30 06:52:28;;;;;;;1.55;1.20;;;12.10;99.90;;;;;;4401079;32;20078;-75
2021/03/30 06:54:56;;;;;;;0.45;0.37;;;12.10;99.90;;;;;;4398324;32;20433;-74
2021/03/30 06:57:44;;;;;;;0.60;0.60;;;12.20;99.90;;;;;;4400931;32;20066;-75
2021/03/30 07:00:13;;;;;;;1.08;0.98;;;12.30;99.90;;;;;;4387101;32;20065;-75
2021/03/30 07:02:45;;;;;;;0.90;0.60;;;12.40;99.90;;;;;;4390569;32;20070;-75
2021/03/30 07:05:28;;;;;;;0.93;0.70;;;12.50;99.90;;;;;;4383020;32;20507;-74
2021/03/30 07:07:56;;;;;;;0.47;0.47;;;12.60;99.90;;;;;;4395954;32;20518;-73
2021/03/30 07:10:22;;;;;;;0.80;0.80;;;12.70;99.90;;;;;;4399177;32;20169;-74
2021/03/30 07:12:50;;;;;;;0.45;0.45;;;12.70;99.90;;;;;;4398411;32;20542;-73
2021/03/30 07:15:17;;;;;;;0.60;0.60;;;12.90;99.90;;;;;;4398391;32;20091;-74
2021/03/30 07:17:46;;;;;;;3.25;1.73;;;13.00;99.90;;;;;;4398846;32;20571;-74
2021/03/30 07:20:16;;;;;;;1.85;1.50;;;13.10;99.60;;;;;;4398377;32;20366;-74
2021/03/30 07:22:45;;;;;;;1.05;0.93;;;13.20;98.70;;;;;;4398211;32;20082;-75
2021/03/30 07:25:14;;;;;;;1.23;0.80;;;13.40;98.30;;;;;;4396637;32;20133;-75
2021/03/30 07:27:47;;;;;;;0.93;0.82;;;13.40;98.40;;;;;;4397629;32;20091;-75
2021/03/30 07:30:14;;;;;;;0.60;0.60;;;13.50;98.30;;;;;;4400425;32;20078;-75
2021/03/30 07:32:50;;;;;;;1.20;1.05;;;13.70;97.50;;;;;;4401516;32;20071;-75
2021/03/30 07:35:19;;;;;;;2.17;0.90;;;13.80;97.00;;;;;;4400644;32;20078;-75
2021/03/30 07:38:13;;;;;;;3.33;1.27;;;13.90;96.90;;;;;;4401304;32;20062;-74
2021/03/30 07:40:40;;;;;;;1.80;0.90;;;14.00;96.70;;;;;;4400901;32;20074;-74
2021/03/30 07:43:08;;;;;;;0.73;0.73;;;14.20;95.90;;;;;;4401456;32;20404;-74
2021/03/30 07:45:38;;;;;;;2.25;1.05;;;14.30;96.10;;;;;;4400982;32;20487;-75
2021/03/30 07:48:05;;;;;;;4.50;0.93;;;14.40;95.80;;;;;;4401348;32;20069;-74
2021/03/30 07:50:53;;;;;;;3.45;1.15;;;14.40;95.50;;;;;;4400432;32;20082;-74
2021/03/30 07:53:41;;;;;;;1.73;1.05;;;14.50;95.20;;;;;;4400522;32;20132;-74
2021/03/30 07:56:27;;;;;;;2.67;1.73;;;14.50;95.10;;;;;;4390058;32;20070;-75
2021/03/30 07:58:55;;;;;;;2.22;0.93;;;14.60;95.20;;;;;;4390044;32;20085;-75
2021/03/30 08:01:22;;;;;;;0.50;0.50;;;14.70;95.10;;;;;;4401848;32;20081;-75
2021/03/30 08:03:50;;;;;;;0.70;0.70;;;14.80;95.00;;;;;;4401537;32;20074;-75
2021/03/30 08:06:26;;;;;;;6.87;1.10;;;14.80;94.80;;;;;;4399982;32;20061;-76
2021/03/30 08:09:06;;;;;;;1.95;0.98;;;14.90;95.20;;;;;;4400458;32;20078;-74
2021/03/30 08:11:50;;;;;;;1.33;0.52;;;15.00;94.50;;;;;;4384831;32;20110;-74
2021/03/30 08:14:19;;;;;;;0.90;0.90;;;15.10;94.90;;;;;;4385830;32;20070;-74
2021/03/30 08:16:47;;;;;;;0.85;0.73;;;15.20;94.40;;;;;;4359075;32;20066;-75
2021/03/30 08:19:13;;;;;;;0.85;0.85;;;15.40;94.40;;;;;;4385896;32;20508;-75
2021/03/30 08:21:58;;;;;;;0.50;0.50;;;15.40;93.90;;;;;;4385670;32;20058;-74
2021/03/30 08:24:27;;;;;;;0.47;0.47;;;15.50;94.10;;;;;;4384771;32;20066;-74
2021/03/30 08:26:54;;;;;;;2.87;1.55;;;15.60;93.40;;;;;;4385028;32;20087;-74
2021/03/30 08:29:31;;;;;;;1.35;0.73;;;15.70;93.40;;;;;;4385295;32;20074;-74
2021/03/30 08:31:58;;;;;;;1.08;0.70;;;15.80;93.30;;;;;;4385404;32;20059;-74
2021/03/30 08:34:27;;;;;;;0.80;0.80;;;15.80;92.80;;;;;;4385589;32;20070;-74
2021/03/30 08:36:57;;;;;;;9.15;1.30;;;15.90;92.60;;;;;;4385128;32;20069;-74
2021/03/30 08:39:26;;;;;;;0.80;0.80;;;16.00;92.50;;;;;;4384277;32;20091;-74
2021/03/30 08:41:55;;;;;;;1.75;1.08;;;16.10;92.50;;;;;;4372270;32;20127;-74
2021/03/30 08:44:45;;;;;;;1.05;1.02;;;16.10;91.90;;;;;;4385441;32;20079;-75
2021/03/30 08:47:37;;;;;;;1.12;0.65;;;16.30;92.10;;;;;;4395903;32;20069;-74
2021/03/30 08:50:28;;;;;;;9.13;2.30;;;16.40;91.50;;;;;;4405323;32;20062;-74
2021/03/30 08:52:55;;;;;;;1.33;1.05;;;16.40;91.60;;;;;;4415834;32;20137;-74
2021/03/30 08:55:39;;;;;;;1.95;0.90;;;16.50;91.40;;;;;;4415531;32;20485;-74
2021/03/30 08:58:06;;;;;;;2.22;1.17;;;16.60;91.60;;;;;;4409248;32;20083;-73
2021/03/30 09:00:31;;;;;;;1.00;0.80;;;16.70;91.50;;;;;;4400648;32;20125;-75
2021/03/30 09:02:59;;;;;;;2.17;1.15;;;16.80;91.50;;;;;;4400000;32;20502;-74
2021/03/30 09:05:25;;;;;;;1.87;0.50;;;16.90;91.30;;;;;;4400111;32;20070;-74
2021/03/30 09:07:50;;;;;;;0.77;0.77;;;16.90;90.80;;;;;;4399212;32;20091;-74
2021/03/30 09:10:16;;;;;;;0.75;0.70;;;17.00;91.40;;;;;;4399939;32;20151;-74
2021/03/30 09:12:44;;;;;;;1.12;0.65;;;17.20;91.50;;;;;;4400222;32;20166;-74
2021/03/30 09:15:12;;;;;;;0.40;0.40;;;17.30;90.60;;;;;;4400530;32;20499;-74
2021/03/30 09:17:58;;;;;;;2.03;0.70;;;17.60;90.30;;;;;;4400327;32;20063;-74
2021/03/30 09:20:26;;;;;;;0.80;0.80;;;17.80;90.90;;;;;;4389133;32;20593;-74
2021/03/30 09:22:54;;;;;;;1.77;1.10;;;17.90;89.20;;;;;;4399822;32;20075;-74
2021/03/30 09:25:39;;;;;;;2.05;0.73;;;17.90;89.70;;;;;;4399216;32;20085;-74
2021/03/30 09:28:12;;;;;;;1.17;0.95;;;17.90;88.80;;;;;;4399695;32;20066;-74
2021/03/30 09:30:38;;;;;;;0.68;0.68;;;18.00;89.40;;;;;;4399763;32;20082;-74
2021/03/30 09:33:03;;;;;;;0.82;0.77;;;18.10;88.70;;;;;;4400024;32;20163;-74
2021/03/30 09:35:32;;;;;;;2.40;1.12;;;18.20;88.60;;;;;;4399701;32;20086;-74
2021/03/30 09:38:01;;;;;;;0.70;0.70;;;18.30;89.30;;;;;;4396144;32;81946;-74
2021/03/30 09:40:31;;;;;;;3.53;1.00;;;18.50;88.90;;;;;;4398595;32;20074;-74
2021/03/30 09:43:07;;;;;;;2.40;0.82;;;18.70;89.00;;;;;;4385825;32;20138;-74
2021/03/30 09:45:34;;;;;;;0.65;0.65;;;19.00;88.10;;;;;;4399067;32;20089;-74
2021/03/30 09:48:03;;;;;;;1.27;1.00;;;19.20;87.70;;;;;;4400688;32;20054;-74
2021/03/30 09:50:29;;;;;;;3.60;1.20;;;19.00;86.80;;;;;;4399704;32;20667;-74
2021/03/30 09:53:02;;;;;;;1.33;1.20;;;19.20;88.30;;;;;;4398363;32;20065;-74
2021/03/30 09:55:31;;;;;;;0.95;0.95;;;19.20;90.00;;;;;;4398879;32;20066;-74
2021/03/30 09:58:00;;;;;;;0.60;0.60;;;19.30;90.20;;;;;;4399364;32;20063;-74
2021/03/30 10:00:27;;;;;;;3.28;1.65;;;19.30;91.10;;;;;;4399602;32;20088;-74
2021/03/30 10:02:53;;;;;;;1.48;1.23;;;19.30;91.30;;;;;;4399410;32;20061;-74
2021/03/30 10:05:19;;;;;;;1.75;0.55;;;19.30;91.90;;;;;;4399846;32;20221;-75
2021/03/30 10:07:45;;;;;;;1.02;0.85;;;19.40;91.60;;;;;;4398727;32;20066;-74
2021/03/30 10:10:12;;;;;;;0.57;0.57;;;19.60;91.50;;;;;;4399202;32;20070;-74
2021/03/30 10:12:58;;;;;;;1.25;1.00;;;19.70;91.30;;;;;;4399201;32;20412;-75
2021/03/30 10:15:32;;;;;;;1.25;1.00;;;19.80;91.00;;;;;;4399683;32;20065;-75
2021/03/30 10:17:58;;;;;;;0.80;0.50;;;19.80;91.00;;;;;;4399629;32;20136;-75
2021/03/30 10:20:25;;;;;;;0.40;0.40;;;19.70;91.50;;;;;;4400550;32;20067;-75
2021/03/30 10:22:52;;;;;;;0.75;0.70;;;19.80;91.30;;;;;;4399792;32;20062;-74
2021/03/30 10:25:20;;;;;;;1.67;0.55;;;19.90;91.30;;;;;;4398057;32;20076;-75
2021/03/30 10:27:50;;;;;;;0.70;0.45;;;19.90;91.70;;;;;;4398457;32;20062;-74
2021/03/30 10:30:18;;;;;;;0.60;0.60;;;20.10;90.90;;;;;;4399086;32;20621;-75
2021/03/30 10:32:48;;;;;;;1.80;1.08;;;20.10;91.10;;;;;;4398744;32;20067;-75
2021/03/30 10:35:14;;;;;;;0.85;0.85;;;20.20;90.40;;;;;;4399209;32;20066;-75
2021/03/30 10:37:41;;;;;;;0.88;0.60;;;20.10;90.40;;;;;;4398095;32;20465;-75
2021/03/30 10:40:07;;;;;;;0.45;0.35;;;20.10;90.10;;;;;;4398286;32;20062;-75
2021/03/30 10:42:37;;;;;;;0.62;0.47;;;20.40;90.80;;;;;;4399249;32;20073;-75
2021/03/30 10:45:06;;;;;;;1.20;1.05;;;20.70;89.50;;;;;;4398832;32;20469;-74
2021/03/30 10:47:36;;;;;;;0.95;0.65;;;21.00;88.60;;;;;;4411410;32;20499;-75
2021/03/30 10:50:06;;;;;;;0.82;0.70;;;21.20;87.40;;;;;;4414244;32;20189;-75
2021/03/30 10:52:34;;;;;;;1.60;0.95;;;21.40;86.80;;;;;;4414533;32;20078;-74
2021/03/30 10:55:02;;;;;;;0.47;0.47;;;21.40;86.50;;;;;;4412764;32;20081;-74
2021/03/30 10:57:38;;;;;;;1.40;1.17;;;21.50;85.10;;;;;;4412530;32;20061;-75
2021/03/30 11:00:06;;;;;;;0.47;0.47;;;21.50;83.30;;;;;;4399270;32;20058;-75
2021/03/30 11:02:32;;;;;;;0.50;0.50;;;22.00;83.70;;;;;;4399369;32;20098;-75
2021/03/30 11:04:58;;;;;;;1.65;1.45;;;22.10;81.40;;;;;;4401405;32;20075;-75
2021/03/30 11:07:23;;;;;;;0.85;0.85;;;22.10;78.80;;;;;;4400976;32;20210;-75
2021/03/30 11:09:49;;;;;;;0.95;0.60;;;22.00;79.50;;;;;;4401444;32;20409;-75
2021/03/30 11:12:14;;;;;;;0.90;0.90;;;22.00;78.10;;;;;;4401418;32;20172;-75
2021/03/30 11:14:40;;;;;;;12.93;1.48;;;22.20;78.80;;;;;;4401079;32;20074;-75
2021/03/30 11:17:06;;;;;;;0.30;0.30;;;22.50;77.40;;;;;;4401598;32;20034;-75
2021/03/30 11:19:32;;;;;;;2.15;0.98;;;22.70;76.80;;;;;;4400964;32;20066;-75
2021/03/30 11:21:58;;;;;;;0.60;0.60;;;22.80;75.30;;;;;;4401103;32;20122;-75
2021/03/30 11:24:26;;;;;;;1.30;0.55;;;23.00;73.20;;;;;;4400201;32;20467;-75
2021/03/30 11:26:54;;;;;;;1.00;0.75;;;23.30;72.70;;;;;;4400914;32;20173;-75
2021/03/30 11:29:29;;;;;;;2.40;1.12;;;23.30;72.80;;;;;;4400770;32;20075;-75
2021/03/30 11:32:39;;;;;;;1.35;0.60;;;23.40;71.00;;;;;;4404064;32;20058;-75
2021/03/30 11:34:47;;;;;;;1.12;0.82;;;23.50;69.60;;;;;;4389227;32;20069;-75
2021/03/30 11:37:24;;;;;;;0.30;0.30;;;23.70;69.40;;;;;;4400778;32;20062;-76
2021/03/30 11:39:49;;;;;;;1.95;1.05;;;23.90;70.20;;;;;;4400798;32;20113;-75
2021/03/30 11:42:15;;;;;;;1.67;0.85;;;24.20;68.30;;;;;;4400544;32;20132;-75
2021/03/30 11:44:41;;;;;;;3.00;0.73;;;24.20;69.50;;;;;;4403531;32;20082;-75
2021/03/30 11:47:06;;;;;;;1.42;0.80;;;24.50;67.20;;;;;;4401201;32;20078;-75
2021/03/30 11:49:34;;;;;;;0.60;0.60;;;24.50;67.40;;;;;;4400476;32;20075;-75
2021/03/30 11:52:00;;;;;;;10.02;1.20;;;24.80;65.40;;;;;;4400194;32;20058;-75
2021/03/30 11:54:26;;;;;;;1.40;0.82;;;24.80;64.90;;;;;;4400293;32;20495;-74
2021/03/30 11:56:52;;;;;;;1.42;0.98;;;24.70;64.70;;;;;;4401537;32;20376;-75
2021/03/30 11:59:17;;;;;;;0.50;0.50;;;25.00;64.60;;;;;;4400337;32;20062;-75
2021/03/30 12:01:43;;;;;;;1.23;0.93;;;25.00;65.30;;;;;;4400961;32;20075;-74
2021/03/30 12:04:09;;;;;;;0.60;0.50;;;25.30;64.10;;;;;;4399847;32;20115;-75
2021/03/30 12:06:34;;;;;;;0.73;0.50;;;24.80;62.40;;;;;;4400365;32;20062;-75
2021/03/30 12:09:00;;;;;;;0.55;0.55;;;24.70;64.10;;;;;;4400327;32;20122;-75
2021/03/30 12:11:28;;;;;;;1.83;1.00;;;25.20;64.00;;;;;;4385252;32;20070;-75
2021/03/30 12:13:54;;;;;;;1.83;1.12;;;25.80;62.50;;;;;;4384457;32;20473;-75
2021/03/30 12:16:19;;;;;;;0.82;0.70;;;25.90;60.00;;;;;;4384576;32;20055;-75
2021/03/30 12:18:45;;;;;;;1.27;0.37;;;26.00;60.20;;;;;;4385190;32;20512;-75
2021/03/30 12:21:10;;;;;;;1.58;0.80;;;26.30;60.90;;;;;;4385688;32;20148;-75
2021/03/30 12:23:36;;;;;;;1.33;0.88;;;26.80;58.80;;;;;;4385235;32;20122;-75
2021/03/30 12:26:01;;;;;;;0.45;0.37;;;26.90;58.30;;;;;;4384699;32;20063;-75
2021/03/30 12:28:27;;;;;;;0.55;0.52;;;27.20;57.90;;;;;;4385939;32;20070;-75
2021/03/30 12:30:52;;;;;;;4.50;1.20;;;27.20;57.00;;;;;;4387288;32;20062;-75
2021/03/30 12:33:19;;;;;;;0.50;0.50;;;27.20;58.00;;;;;;4384991;32;20062;-75
2021/03/30 12:35:44;;;;;;;1.15;0.55;;;27.10;57.40;;;;;;4386019;32;20066;-75
2021/03/30 12:38:10;;;;;;;15.88;0.88;;;27.20;55.90;;;;;;4384135;32;20075;-75
2021/03/30 12:40:36;;;;;;;1.90;0.77;;;27.00;56.70;;;;;;4385121;32;20074;-75
2021/03/30 12:43:03;;;;;;;1.87;0.93;;;27.20;55.60;;;;;;4384653;32;20074;-75
2021/03/30 12:45:28;;;;;;;10.10;2.87;;;27.40;55.70;;;;;;4385567;32;20289;-74
2021/03/30 12:47:54;;;;;;;0.82;0.65;;;27.20;55.00;;;;;;4415512;32;20369;-74
2021/03/30 12:50:25;;;;;;;1.40;0.98;;;27.00;55.80;;;;;;4415179;32;20073;-74
2021/03/30 12:52:50;;;;;;;0.40;0.40;;;27.20;55.20;;;;;;4414790;32;20074;-75
2021/03/30 12:55:16;;;;;;;2.03;0.88;;;27.30;55.60;;;;;;4414541;32;20057;-75
2021/03/30 12:57:41;;;;;;;0.75;0.57;;;27.90;53.30;;;;;;4411858;32;20066;-76
2021/03/30 13:00:08;;;;;;;1.12;0.77;;;28.00;54.20;;;;;;4399827;32;20090;-75